Otagawa — JD3046 — position and weather

sailwx.info

Track history (hours):
 
Tides and Currents Weather Stations Pressure Air Temp Water Temp Dewpoint Dewpoint Depression Visibility Wind Speed Wind Dir Waves Ship Positions

Otagawa

Last reported at 2015-Feb-26 12:30 UTC. Time now 2015-Mar-02 12:47 UTC.
Position N 34°60' E 139°43'.

Length 70 m; draft 4 m.

Type: Ship. MMSI: 431001328.

Date/timePositionNaut miles runAvg speedWind from/ knotsBaromVisibWave heightAir tempDewpointWater temp
2015-Feb-26 12:30N 34°60' E 139°43'1011.0
2015-Feb-26 11:34N 35°10' E 139°46'1010.4
2015-Feb-26 10:34N 35°20' E 139°43'1110.5
2015-Feb-26 09:33N 35°30' E 139°48'7 6.7
2015-Feb-26 08:28N 35°37' E 139°46'3 1.1
2015-Feb-26 05:33N 35°34' E 139°48'6 5.7
2015-Feb-26 04:33N 35°29' E 139°45'1 0.7
2015-Feb-26 03:34N 35°29' E 139°45'10 9.7
2015-Feb-26 02:34N 35°19' E 139°44'10 9.8
2015-Feb-26 01:33N 35°09' E 139°46'10 9.8
2015-Feb-26 00:33N 35°02' E 139°38'  
2015-Feb-21 00:33N 35°00' E 139°44'1111.0
2015-Feb-20 23:33N 35°11' E 139°46'1110.8
2015-Feb-20 22:33N 35°21' E 139°42'8 7.9
2015-Feb-20 21:33N 35°29' E 139°39'0 0.0
2015-Feb-20 20:32N 35°29' E 139°39'0 0.0
2015-Feb-20 19:32N 35°29' E 139°39'0 0.0
2015-Feb-20 18:32N 35°29' E 139°39'0 0.0
2015-Feb-20 17:32N 35°29' E 139°39'0 0.0
2015-Feb-20 16:32N 35°29' E 139°39'0 0.0
2015-Feb-20 15:32N 35°29' E 139°39'0 0.0
2015-Feb-20 14:32N 35°29' E 139°39'0 0.0
2015-Feb-20 13:32N 35°29' E 139°39'0 0.0
2015-Feb-20 12:32N 35°29' E 139°39'0 0.0
2015-Feb-20 11:32N 35°29' E 139°39'0 0.0
2015-Feb-20 10:32N 35°29' E 139°39'0 0.0
2015-Feb-20 09:32N 35°29' E 139°39'0 0.0
2015-Feb-20 08:32N 35°29' E 139°39'0 0.0
2015-Feb-20 07:32N 35°29' E 139°39'0 0.0
2015-Feb-20 06:32N 35°29' E 139°39'0 0.0
2015-Feb-20 05:29N 35°29' E 139°39'0 0.0
2015-Feb-20 04:32N 35°29' E 139°39'0 0.0
2015-Feb-20 03:32N 35°29' E 139°39'0 0.0
2015-Feb-20 02:32N 35°29' E 139°39'0 0.0
2015-Feb-20 01:32N 35°29' E 139°39'3 2.9
2015-Feb-20 00:33N 35°26' E 139°41'0 0.0
2015-Feb-19 23:33N 35°26' E 139°41'1 0.8
2015-Feb-19 22:31N 35°26' E 139°42'0 0.0
2015-Feb-19 21:31N 35°26' E 139°42'5 4.9
2015-Feb-19 20:33N 35°21' E 139°43'1110.8
2015-Feb-19 19:33N 35°11' E 139°46'1110.7
2015-Feb-19 18:33N 35°02' E 139°39'  
2015-Feb-17 11:33N 34°08' E 134°60'1110.7
2015-Feb-17 10:33N 34°19' E 134°59'1110.6
2015-Feb-17 09:33N 34°27' E 135°08'1111.0
2015-Feb-17 08:33N 34°35' E 135°16'5 5.3
2015-Feb-17 07:32N 34°41' E 135°17'0 0.0
2015-Feb-17 06:32N 34°41' E 135°17'0 0.0
2015-Feb-17 05:32N 34°41' E 135°17'0 0.0
2015-Feb-17 04:32N 34°41' E 135°17'0 0.0
2015-Feb-17 03:33N 34°41' E 135°17'6 5.9
2015-Feb-17 02:33N 34°38' E 135°23'1 0.5
2015-Feb-17 01:16N 34°39' E 135°24'0 0.0
2015-Feb-17 00:10N 34°39' E 135°24'0 0.0
2015-Feb-16 23:28N 34°39' E 135°24'0 0.0
2015-Feb-16 22:33N 34°39' E 135°24'2 2.0
2015-Feb-16 21:33N 34°37' E 135°22'0 0.0
2015-Feb-16 20:33N 34°37' E 135°22'0 0.1
2015-Feb-16 19:33N 34°37' E 135°22'0 0.0
2015-Feb-16 18:32N 34°37' E 135°22'0 0.1
2015-Feb-16 17:33N 34°37' E 135°22'5 5.1
2015-Feb-16 16:33N 34°35' E 135°16'1111.0
2015-Feb-16 15:33N 34°36' E 135°03'  
Track history (hours):
 
Tides and Currents Weather Stations Pressure Air Temp Water Temp Dewpoint Dewpoint Depression Visibility Wind Speed Wind Dir Waves Ship Positions

Otagawa

Last reported at 2015-Feb-26 12:30 UTC. Time now 2015-Mar-02 12:47 UTC.
Position N 34°60' E 139°43'.

Length 70 m; draft 4 m.

Type: Ship. MMSI: 431001328.

Date/timePositionNaut miles runAvg speedWind from/ knotsBaromVisibWave heightAir tempDewpointWater temp
2015-Feb-26 12:30N 34°60' E 139°43'1011.0
2015-Feb-26 11:34N 35°10' E 139°46'1010.4
2015-Feb-26 10:34N 35°20' E 139°43'1110.5
2015-Feb-26 09:33N 35°30' E 139°48'7 6.7
2015-Feb-26 08:28N 35°37' E 139°46'3 1.1
2015-Feb-26 05:33N 35°34' E 139°48'6 5.7
2015-Feb-26 04:33N 35°29' E 139°45'1 0.7
2015-Feb-26 03:34N 35°29' E 139°45'10 9.7
2015-Feb-26 02:34N 35°19' E 139°44'10 9.8
2015-Feb-26 01:33N 35°09' E 139°46'10 9.8
2015-Feb-26 00:33N 35°02' E 139°38'  
2015-Feb-21 00:33N 35°00' E 139°44'1111.0
2015-Feb-20 23:33N 35°11' E 139°46'1110.8
2015-Feb-20 22:33N 35°21' E 139°42'8 7.9
2015-Feb-20 21:33N 35°29' E 139°39'0 0.0
2015-Feb-20 20:32N 35°29' E 139°39'0 0.0
2015-Feb-20 19:32N 35°29' E 139°39'0 0.0
2015-Feb-20 18:32N 35°29' E 139°39'0 0.0
2015-Feb-20 17:32N 35°29' E 139°39'0 0.0
2015-Feb-20 16:32N 35°29' E 139°39'0 0.0
2015-Feb-20 15:32N 35°29' E 139°39'0 0.0
2015-Feb-20 14:32N 35°29' E 139°39'0 0.0
2015-Feb-20 13:32N 35°29' E 139°39'0 0.0
2015-Feb-20 12:32N 35°29' E 139°39'0 0.0
2015-Feb-20 11:32N 35°29' E 139°39'0 0.0
2015-Feb-20 10:32N 35°29' E 139°39'0 0.0
2015-Feb-20 09:32N 35°29' E 139°39'0 0.0
2015-Feb-20 08:32N 35°29' E 139°39'0 0.0
2015-Feb-20 07:32N 35°29' E 139°39'0 0.0
2015-Feb-20 06:32N 35°29' E 139°39'0 0.0
2015-Feb-20 05:29N 35°29' E 139°39'0 0.0
2015-Feb-20 04:32N 35°29' E 139°39'0 0.0
2015-Feb-20 03:32N 35°29' E 139°39'0 0.0
2015-Feb-20 02:32N 35°29' E 139°39'0 0.0
2015-Feb-20 01:32N 35°29' E 139°39'3 2.9
2015-Feb-20 00:33N 35°26' E 139°41'0 0.0
2015-Feb-19 23:33N 35°26' E 139°41'1 0.8
2015-Feb-19 22:31N 35°26' E 139°42'0 0.0
2015-Feb-19 21:31N 35°26' E 139°42'5 4.9
2015-Feb-19 20:33N 35°21' E 139°43'1110.8
2015-Feb-19 19:33N 35°11' E 139°46'1110.7
2015-Feb-19 18:33N 35°02' E 139°39'  
2015-Feb-17 11:33N 34°08' E 134°60'1110.7
2015-Feb-17 10:33N 34°19' E 134°59'1110.6
2015-Feb-17 09:33N 34°27' E 135°08'1111.0
2015-Feb-17 08:33N 34°35' E 135°16'5 5.3
2015-Feb-17 07:32N 34°41' E 135°17'0 0.0
2015-Feb-17 06:32N 34°41' E 135°17'0 0.0
2015-Feb-17 05:32N 34°41' E 135°17'0 0.0
2015-Feb-17 04:32N 34°41' E 135°17'0 0.0
2015-Feb-17 03:33N 34°41' E 135°17'6 5.9
2015-Feb-17 02:33N 34°38' E 135°23'1 0.5
2015-Feb-17 01:16N 34°39' E 135°24'0 0.0
2015-Feb-17 00:10N 34°39' E 135°24'0 0.0
2015-Feb-16 23:28N 34°39' E 135°24'0 0.0
2015-Feb-16 22:33N 34°39' E 135°24'2 2.0
2015-Feb-16 21:33N 34°37' E 135°22'0 0.0
2015-Feb-16 20:33N 34°37' E 135°22'0 0.1
2015-Feb-16 19:33N 34°37' E 135°22'0 0.0
2015-Feb-16 18:32N 34°37' E 135°22'0 0.1
2015-Feb-16 17:33N 34°37' E 135°22'5 5.1
2015-Feb-16 16:33N 34°35' E 135°16'1111.0
2015-Feb-16 15:33N 34°36' E 135°03'  

Dump ship's entire track history